Time;durP1;ratioP1;P1;durP2;ratioP2;P2;SDS_P1;SDS_P2;PMS_P1;PMS_P2;Temp;Humidity;BMP_temperature;BMP_pressure;BME280_temperature;BME280_humidity;BME280_pressure;Samples;Min_cycle;Max_cycle;Signal;HPM_P1;HPM_P2
2022/03/28 00:02:06;;;;;;;;;35.25;32.25;;;;;14.38;42.90;101863.56;5122793;27;47121;-80
2022/03/28 00:04:32;;;;;;;;;43.75;33.00;;;;;14.28;43.17;101859.94;5119933;27;46145;-83
2022/03/28 00:06:58;;;;;;;;;45.75;36.50;;;;;14.27;43.49;101863.47;5121008;27;45237;-83
2022/03/28 00:09:24;;;;;;;;;46.00;35.00;;;;;14.16;43.94;101844.81;5102257;27;45245;-82
2022/03/28 00:11:49;;;;;;;;;45.25;37.50;;;;;14.23;43.49;101857.22;5120748;27;45421;-82
2022/03/28 00:14:15;;;;;;;;;45.50;35.00;;;;;14.14;43.77;101849.16;5120263;27;46264;-83
2022/03/28 00:16:40;;;;;;;;;43.50;38.00;;;;;14.00;43.66;101836.66;5121447;27;45320;-83
2022/03/28 00:19:06;;;;;;;;;41.25;35.25;;;;;14.03;44.01;101842.00;5121588;27;45232;-82
2022/03/28 00:21:31;;;;;;;;;43.25;36.25;;;;;13.88;44.00;101819.78;5120879;27;45206;-82
2022/03/28 00:23:58;;;;;;;;;38.00;35.00;;;;;14.01;44.40;101855.22;5121398;27;46069;-83
2022/03/28 00:26:23;;;;;;;;;36.50;34.00;;;;;13.92;44.60;101840.13;5118908;27;45472;-83
2022/03/28 00:28:49;;;;;;;;;49.25;39.50;;;;;13.83;45.42;101833.81;5121279;27;45422;-82
2022/03/28 00:31:15;;;;;;;;;45.00;36.25;;;;;13.95;45.17;101849.84;5120398;27;45463;-81
2022/03/28 00:33:41;;;;;;;;;44.00;38.00;;;;;13.87;45.72;101841.84;5122781;27;46161;-83
2022/03/28 00:36:06;;;;;;;;;45.00;36.25;;;;;13.63;45.87;101805.34;5122408;27;45419;-81
2022/03/28 00:38:32;;;;;;;;;42.25;35.75;;;;;13.84;46.23;101839.13;5118638;27;45283;-82
2022/03/28 00:40:58;;;;;;;;;40.75;33.00;;;;;13.72;46.78;101822.22;5120461;27;45302;-83
2022/03/28 00:43:23;;;;;;;;;42.25;36.25;;;;;13.68;46.37;101826.59;5117972;27;45938;-82
2022/03/28 00:45:48;;;;;;;;;41.25;36.00;;;;;13.47;46.64;101783.97;5119220;27;45285;-82
2022/03/28 00:48:14;;;;;;;;;44.50;36.50;;;;;13.74;47.04;101829.31;5119659;27;45377;-80
2022/03/28 00:50:41;;;;;;;;;38.50;35.00;;;;;13.70;46.61;101830.16;5120471;27;45329;-82
2022/03/28 00:53:11;;;;;;;;;38.50;35.75;;;;;13.32;47.32;101772.34;5119438;27;45477;-82
2022/03/28 00:55:37;;;;;;;;;45.00;36.25;;;;;13.63;47.48;101823.88;5114852;27;45435;-83
2022/03/28 00:58:02;;;;;;;;;35.00;31.00;;;;;13.50;47.31;101808.72;5120777;27;45294;-83
2022/03/28 01:00:27;;;;;;;;;45.25;34.25;;;;;13.59;47.51;101830.03;5121404;27;45305;-83
2022/03/28 01:02:53;;;;;;;;;38.50;32.25;;;;;13.31;47.72;101785.56;5118225;27;45985;-82
2022/03/28 01:05:19;;;;;;;;;36.50;34.00;;;;;13.48;48.59;101814.84;5117163;27;45222;-81
2022/03/28 01:07:44;;;;;;;;;49.50;37.25;;;;;13.49;47.86;101821.91;5132990;27;45143;-82
2022/03/28 01:10:11;;;;;;;;;39.00;34.25;;;;;13.41;48.79;101813.91;5126034;27;45171;-80
2022/03/28 01:12:37;;;;;;;;;35.00;32.50;;;;;13.43;48.82;101820.09;5120155;27;45439;-82
2022/03/28 01:15:04;;;;;;;;;36.75;34.00;;;;;13.40;48.83;101823.59;5120793;27;45383;-82
2022/03/28 01:20:15;;;;;;;;;41.50;35.50;;;;;13.35;50.04;101812.06;5121217;27;45334;-81
2022/03/28 01:22:40;;;;;;;;;43.25;35.25;;;;;13.24;50.00;101781.03;5109205;27;45466;-82
2022/03/28 01:25:07;;;;;;;;;43.00;37.25;;;;;13.39;49.60;101808.56;5118070;27;45410;-84
2022/03/28 01:27:36;;;;;;;;;35.00;32.75;;;;;13.32;49.70;101792.63;5115811;27;45506;-83
2022/03/28 01:30:04;;;;;;;;;39.00;33.25;;;;;13.04;49.77;101747.22;5117601;27;45473;-83
2022/03/28 01:32:30;;;;;;;;;43.75;34.00;;;;;13.29;50.30;101793.44;5117900;27;46874;-83
2022/03/28 01:34:55;;;;;;;;;40.25;36.25;;;;;13.32;50.12;101803.19;5119306;27;45448;-83
2022/03/28 01:37:21;;;;;;;;;38.25;33.50;;;;;13.26;50.90;101785.47;5119248;27;45672;-81
2022/03/28 01:39:46;;;;;;;;;38.25;32.75;;;;;13.30;51.12;101792.56;5119541;27;45474;-83
2022/03/28 01:42:11;;;;;;;;;41.00;37.00;;;;;13.29;51.25;101801.38;5115556;27;46185;-80
2022/03/28 01:44:37;;;;;;;;;49.25;36.75;;;;;13.27;51.62;101789.88;5116876;27;45541;-81
2022/03/28 01:47:02;;;;;;;;;36.75;34.50;;;;;13.18;51.75;101786.19;5118628;27;45429;-83
2022/03/28 01:49:28;;;;;;;;;43.75;39.00;;;;;12.97;51.14;101749.78;5119972;27;45516;-83
2022/03/28 01:51:53;;;;;;;;;50.50;42.50;;;;;13.20;51.63;101790.66;5119095;27;45178;-83
2022/03/28 01:54:19;;;;;;;;;45.50;36.75;;;;;13.00;52.23;101760.38;5120079;27;45360;-84
2022/03/28 01:56:47;;;;;;;;;43.75;37.50;;;;;13.09;52.85;101786.97;5124048;27;45397;-82
2022/03/28 01:59:14;;;;;;;;;45.25;37.25;;;;;13.10;52.60;101786.97;5118507;27;45539;-82
2022/03/28 02:01:39;;;;;;;;;43.00;34.00;;;;;13.08;52.64;101787.84;5117524;27;45607;-82
2022/03/28 02:04:05;;;;;;;;;50.25;39.75;;;;;13.04;53.23;101781.63;5118251;27;45468;-81
2022/03/28 02:06:34;;;;;;;;;45.75;39.00;;;;;13.03;53.55;101784.25;5118038;27;45561;-82
2022/03/28 02:08:59;;;;;;;;;50.25;39.00;;;;;13.02;53.99;101780.69;5119649;27;45480;-82
2022/03/28 02:11:25;;;;;;;;;50.75;39.50;;;;;12.94;53.79;101762.97;5117412;27;46011;-82
2022/03/28 02:13:50;;;;;;;;;52.50;42.00;;;;;13.01;54.56;101785.97;5118237;27;45385;-82
2022/03/28 02:16:16;;;;;;;;;35.75;32.25;;;;;12.76;54.88;101738.03;5119068;27;45364;-84
2022/03/28 02:18:42;;;;;;;;;53.25;42.50;;;;;12.96;55.13;101783.28;5118140;27;45213;-81
2022/03/28 02:21:07;;;;;;;;;50.50;40.00;;;;;12.74;55.15;101738.84;5099849;27;45417;-82
2022/03/28 02:23:33;;;;;;;;;47.00;36.50;;;;;12.98;55.16;101780.63;5119209;27;45322;-82
2022/03/28 02:25:59;;;;;;;;;42.25;36.50;;;;;12.90;55.11;101769.94;5117851;27;45465;-81
2022/03/28 02:28:24;;;;;;;;;54.50;43.75;;;;;12.94;56.30;101774.44;5119462;27;45340;-83
2022/03/28 02:30:50;;;;;;;;;47.75;39.25;;;;;12.71;56.32;101744.09;5120930;27;46663;-83
2022/03/28 02:33:16;;;;;;;;;52.00;44.50;;;;;12.78;56.41;101757.44;5122178;27;45465;-83
2022/03/28 02:35:42;;;;;;;;;50.00;42.00;;;;;12.83;56.54;101768.97;5117446;27;45468;-81
2022/03/28 02:38:07;;;;;;;;;47.25;38.25;;;;;12.89;57.02;101772.56;5118628;27;45504;-82
2022/03/28 02:40:35;;;;;;;;;53.50;43.75;;;;;12.82;57.15;101766.28;5117486;27;45553;-82
2022/03/28 02:43:02;;;;;;;;;55.00;42.25;;;;;12.75;57.10;101745.91;5118150;27;45629;-81
2022/03/28 02:45:31;;;;;;;;;50.00;41.75;;;;;12.87;56.67;101767.25;5118132;27;45430;-81
2022/03/28 02:47:56;;;;;;;;;53.50;41.75;;;;;12.82;57.06;101755.72;5118288;27;45583;-82
2022/03/28 02:50:22;;;;;;;;;37.00;35.00;;;;;12.76;56.92;101747.72;5112055;27;45321;-82
2022/03/28 02:52:47;;;;;;;;;52.75;43.00;;;;;12.61;56.96;101718.41;5101847;27;45406;-82
2022/03/28 02:55:14;;;;;;;;;51.75;41.25;;;;;12.62;57.22;101718.41;5119058;27;45308;-83
2022/03/28 02:57:39;;;;;;;;;54.00;42.00;;;;;12.52;57.08;101698.91;5117394;27;45564;-82
2022/03/28 03:00:08;;;;;;;;;57.25;45.00;;;;;12.47;57.29;101686.47;5117938;27;46014;-79
2022/03/28 03:02:40;;;;;;;;;51.50;42.50;;;;;12.78;57.83;101746.88;5117969;27;45619;-82
2022/03/28 03:05:06;;;;;;;;;54.75;42.25;;;;;12.80;57.54;101741.59;5120506;27;45258;-82
2022/03/28 03:07:32;;;;;;;;;51.00;40.50;;;;;12.80;57.49;101745.13;5123365;27;45501;-82
2022/03/28 03:09:57;;;;;;;;;55.00;44.00;;;;;12.79;57.50;101742.47;5119192;27;45653;-83
2022/03/28 03:12:23;;;;;;;;;48.00;38.75;;;;;12.70;58.56;101734.41;5119451;27;45344;-81
2022/03/28 03:14:50;;;;;;;;;55.25;44.00;;;;;12.76;58.64;101740.69;5124591;27;45353;-80
2022/03/28 03:17:16;;;;;;;;;50.75;41.75;;;;;12.62;59.14;101710.50;5134128;27;45323;-82
2022/03/28 03:19:41;;;;;;;;;52.50;41.75;;;;;12.77;59.15;101733.63;5133538;27;46284;-82
2022/03/28 03:22:09;;;;;;;;;46.00;33.50;;;;;12.43;58.41;101674.97;5134404;27;45307;-80
2022/03/28 03:24:35;;;;;;;;;55.75;44.25;;;;;12.76;59.32;101731.84;5137086;27;44624;-82
2022/03/28 03:27:00;;;;;;;;;52.50;42.00;;;;;12.57;58.97;101693.69;5131015;27;45357;-82
2022/03/28 03:29:27;;;;;;;;;57.75;45.50;;;;;12.51;59.70;101693.59;5121751;27;45165;-81
2022/03/28 03:31:52;;;;;;;;;53.00;43.25;;;;;12.60;59.26;101709.59;5121842;27;45502;-82
2022/03/28 03:34:18;;;;;;;;;53.00;44.75;;;;;12.55;59.62;101709.50;5103911;27;45370;-82
2022/03/28 03:36:44;;;;;;;;;57.75;46.00;;;;;12.59;59.64;101713.09;5121794;27;45300;-82
2022/03/28 03:39:09;;;;;;;;;58.50;43.25;;;;;12.49;59.86;101698.84;5120005;27;46342;-82
2022/03/28 03:41:35;;;;;;;;;55.25;43.50;;;;;12.46;60.05;101698.78;5125307;27;45297;-80
2022/03/28 03:44:00;;;;;;;;;54.50;44.00;;;;;11.83;59.94;101599.22;5125113;27;45332;-81
2022/03/28 03:46:26;;;;;;;;;62.75;47.25;;;;;12.57;60.48;101727.16;5122158;27;45388;-80
2022/03/28 03:48:51;;;;;;;;;55.00;45.00;;;;;12.34;60.72;101687.16;5121598;27;45475;-82
2022/03/28 03:51:17;;;;;;;;;50.75;41.75;;;;;12.55;60.55;101720.06;5120003;27;45277;-82
2022/03/28 03:53:43;;;;;;;;;58.25;43.75;;;;;12.47;60.20;101704.97;5121063;27;45211;-82
2022/03/28 03:56:08;;;;;;;;;56.00;47.00;;;;;12.55;61.26;101720.06;5122100;27;45273;-82
2022/03/28 03:58:34;;;;;;;;;56.25;43.50;;;;;12.21;60.87;101663.19;5121527;27;45848;-82
2022/03/28 04:01:00;;;;;;;;;57.50;46.50;;;;;12.53;60.99;101719.16;5119625;27;45222;-82
2022/03/28 04:03:25;;;;;;;;;55.50;45.00;;;;;12.42;61.02;101701.38;5120287;27;45466;-82
2022/03/28 04:05:50;;;;;;;;;60.00;46.75;;;;;12.46;61.99;101712.00;5121406;27;45276;-82
2022/03/28 04:08:16;;;;;;;;;58.50;47.25;;;;;12.51;61.87;101720.91;5120998;27;46050;-83
2022/03/28 04:10:42;;;;;;;;;58.00;45.00;;;;;12.41;61.99;101704.88;5119498;27;45487;-82
2022/03/28 04:13:10;;;;;;;;;57.50;46.75;;;;;12.43;61.98;101714.63;5119838;27;45442;-80
2022/03/28 04:15:35;;;;;;;;;55.00;42.75;;;;;12.49;62.05;101724.41;5121050;27;45539;-81
2022/03/28 04:18:00;;;;;;;;;58.50;47.00;;;;;12.47;62.09;101721.75;5104506;27;46937;-80
2022/03/28 04:20:27;;;;;;;;;58.00;48.25;;;;;12.17;62.15;101676.31;5122158;27;45360;-82
2022/03/28 04:22:53;;;;;;;;;61.25;46.75;;;;;12.43;63.05;101726.94;5119515;27;45420;-80
2022/03/28 04:25:19;;;;;;;;;65.00;48.75;;;;;12.12;62.45;101668.34;5121306;27;45200;-82
2022/03/28 04:27:45;;;;;;;;;62.50;48.00;;;;;12.41;62.42;101718.09;5120552;27;45954;-82
2022/03/28 04:30:12;;;;;;;;;62.75;47.50;;;;;12.39;62.57;101717.19;5120870;27;45397;-82
2022/03/28 04:32:38;;;;;;;;;61.75;46.75;;;;;12.37;62.58;101721.53;5119607;27;45527;-82
2022/03/28 04:35:05;;;;;;;;;57.75;46.00;;;;;12.31;62.96;101724.09;5120895;27;45339;-81
2022/03/28 04:37:38;;;;;;;;;58.25;47.00;;;;;12.27;63.54;101724.03;5120300;27;46272;-83
2022/03/28 04:40:07;;;;;;;;;64.00;46.25;;;;;12.27;63.52;101731.97;5120125;27;45587;-82
2022/03/28 04:42:33;;;;;;;;;59.50;45.50;;;;;12.21;63.58;101720.44;5117017;27;45570;-81
2022/03/28 04:44:58;;;;;;;;;57.75;47.75;;;;;12.15;63.69;101709.75;5121723;27;45180;-82
2022/03/28 04:47:24;;;;;;;;;55.00;43.50;;;;;12.18;63.64;101712.44;5120856;27;45195;-82
2022/03/28 04:49:49;;;;;;;;;60.50;48.50;;;;;12.16;63.44;101704.50;5120229;27;45246;-82
2022/03/28 04:52:15;;;;;;;;;55.25;47.00;;;;;12.24;63.64;101721.34;5120667;27;45204;-81
2022/03/28 04:54:40;;;;;;;;;57.00;46.25;;;;;12.24;64.13;101712.53;5125954;27;45234;-83
2022/03/28 04:57:06;;;;;;;;;59.00;48.00;;;;;12.20;63.59;101711.63;5119271;27;45533;-80
2022/03/28 04:59:32;;;;;;;;;65.00;49.75;;;;;12.12;64.33;101697.41;5120020;27;45519;-82
2022/03/28 05:01:58;;;;;;;;;56.00;47.25;;;;;11.83;63.83;101649.38;5120662;27;45278;-82
2022/03/28 05:04:24;;;;;;;;;59.75;48.75;;;;;12.07;63.53;101695.53;5119169;27;45622;-82
2022/03/28 05:06:50;;;;;;;;;66.25;51.50;;;;;12.14;64.03;101711.50;5120170;27;46206;-82
2022/03/28 05:09:16;;;;;;;;;63.50;49.75;;;;;11.57;64.43;101617.22;5118954;27;45427;-82
2022/03/28 05:11:42;;;;;;;;;60.25;48.50;;;;;12.03;64.54;101694.59;5120398;27;45437;-83
2022/03/28 05:14:08;;;;;;;;;56.50;46.00;;;;;12.03;64.41;101684.03;5117586;27;45870;-83
2022/03/28 05:16:34;;;;;;;;;64.50;49.00;;;;;12.01;65.10;101687.53;5121409;27;45587;-84
2022/03/28 05:18:59;;;;;;;;;62.75;49.00;;;;;11.47;64.15;101595.94;5120861;27;45365;-83
2022/03/28 05:21:24;;;;;;;;;62.25;46.75;;;;;12.13;64.32;101700.94;5117732;27;45464;-84
2022/03/28 05:23:50;;;;;;;;;62.00;49.00;;;;;11.83;64.57;101645.84;5119738;27;45384;-83
2022/03/28 05:26:15;;;;;;;;;61.50;48.50;;;;;12.10;63.86;101704.41;5120596;27;47622;-84
2022/03/28 05:28:41;;;;;;;;;64.00;49.25;;;;;11.92;64.58;101675.06;5123196;27;45538;-81
2022/03/28 05:31:06;;;;;;;;;86.00;70.33;;;;;12.11;63.84;101710.59;5120467;27;45946;-82
2022/03/28 05:33:33;;;;;;;;;70.67;57.00;;;;;12.12;64.15;101702.69;5119062;27;45510;-82
2022/03/28 05:35:59;;;;;;;;;64.00;51.50;;;;;11.71;64.47;101633.28;5119785;27;45450;-81
2022/03/28 05:38:25;;;;;;;;;63.75;51.50;;;;;12.13;64.64;101706.22;5119263;27;45527;-81
2022/03/28 05:40:51;;;;;;;;;62.50;50.00;;;;;12.05;63.98;101686.69;5119682;27;45489;-83
2022/03/28 05:43:17;;;;;;;;;63.50;49.75;;;;;12.13;64.46;101709.72;5117841;27;45417;-82
2022/03/28 05:45:42;;;;;;;;;64.25;49.75;;;;;12.14;64.74;101719.44;5119210;27;45450;-89
2022/03/28 05:48:08;;;;;;;;;70.50;53.25;;;;;11.81;64.04;101648.44;5121372;27;45240;-87
2022/03/28 05:50:34;;;;;;;;;72.00;51.00;;;;;11.87;64.62;101652.94;5137585;27;45269;-83
2022/03/28 05:53:00;;;;;;;;;63.25;49.75;;;;;11.88;64.43;101666.16;5120253;27;45239;-87
2022/03/28 05:55:25;;;;;;;;;60.75;47.50;;;;;11.81;63.86;101637.00;5118893;27;45247;-81
2022/03/28 05:57:51;;;;;;;;;56.00;46.50;;;;;12.14;64.36;101689.50;5110304;27;45220;-78
2022/03/28 06:00:16;;;;;;;;;61.25;49.00;;;;;12.12;64.37;101681.53;5121144;27;45307;-85
2022/03/28 06:02:42;;;;;;;;;63.25;49.00;;;;;12.32;64.05;101702.09;5124065;27;45154;-85
2022/03/28 06:05:08;;;;;;;;;65.00;48.00;;;;;12.27;63.98;101681.75;5135936;27;45561;-83
2022/03/28 06:07:34;;;;;;;;;67.00;51.25;;;;;12.40;64.16;101693.44;5106397;27;45368;-83
2022/03/28 06:10:00;;;;;;;;;66.25;49.75;;;;;12.15;63.69;101655.16;5121423;27;45319;-83
2022/03/28 06:12:26;;;;;;;;;59.25;47.75;;;;;12.48;63.79;101702.38;5119579;27;45488;-84
2022/03/28 06:14:51;;;;;;;;;60.75;47.75;;;;;12.39;63.57;101682.84;5117831;27;45563;-84
2022/03/28 06:17:23;;;;;;;;;64.50;51.50;;;;;12.08;63.11;101616.31;5100634;27;45388;-84
2022/03/28 06:19:49;;;;;;;;;63.00;48.50;;;;;12.60;62.85;101701.66;5115825;27;45543;-83
2022/03/28 06:22:15;;;;;;;;;62.00;48.75;;;;;12.16;62.67;101625.25;5130713;27;45534;-83
2022/03/28 06:24:41;;;;;;;;;63.00;48.50;;;;;12.43;63.08;101659.13;5105265;27;47934;-83
2022/03/28 06:27:06;;;;;;;;;63.25;49.00;;;;;12.18;62.34;101609.41;5112690;27;45293;-84
2022/03/28 06:29:32;;;;;;;;;60.25;46.75;;;;;12.76;62.21;101694.84;5097929;27;45400;-84
2022/03/28 06:31:57;;;;;;;;;56.50;47.25;;;;;12.31;61.87;101610.50;5128081;27;45492;-82
2022/03/28 06:34:23;;;;;;;;;64.25;48.25;;;;;12.84;61.78;101686.16;5117500;27;46325;-78
2022/03/28 06:36:48;;;;;;;;;62.75;49.00;;;;;12.85;61.60;101668.53;5114448;27;45448;-80
2022/03/28 06:39:15;;;;;;;;;68.25;50.75;;;;;13.11;61.79;101690.88;5118574;27;45632;-77
2022/03/28 06:41:41;;;;;;;;;67.50;51.00;;;;;13.23;60.93;101690.19;5121257;27;45419;-80
2022/03/28 06:44:11;;;;;;;;;55.00;44.25;;;;;13.31;60.56;101700.88;5116754;27;45439;-81
2022/03/28 06:46:39;;;;;;;;;64.75;50.75;;;;;13.35;60.16;101695.59;5116080;27;45494;-79
2022/03/28 06:49:05;;;;;;;;;62.25;48.00;;;;;13.43;60.30;101697.47;5116325;27;45523;-79
2022/03/28 06:51:30;;;;;;;;;60.75;47.25;;;;;13.42;60.13;101690.41;5117310;27;45400;-79
2022/03/28 06:53:55;;;;;;;;;64.50;51.00;;;;;13.45;60.52;101701.00;5118028;27;46042;-80
2022/03/28 06:56:21;;;;;;;;;57.25;47.25;;;;;13.44;59.96;101689.53;5118430;27;45512;-80
2022/03/28 06:58:46;;;;;;;;;59.50;46.50;;;;;13.43;60.08;101693.06;5117565;27;45811;-82
2022/03/28 07:01:12;;;;;;;;;64.00;49.50;;;;;13.45;60.01;101693.94;5117422;27;45486;-84
2022/03/28 07:03:37;;;;;;;;;63.75;49.75;;;;;13.48;59.48;101691.31;5113675;27;45502;-83
2022/03/28 07:06:03;;;;;;;;;55.25;46.25;;;;;13.50;59.90;101696.66;5116622;27;45606;-81
2022/03/28 07:08:29;;;;;;;;;64.25;50.75;;;;;13.53;59.53;101694.94;5116586;27;45337;-81
2022/03/28 07:10:55;;;;;;;;;64.50;50.50;;;;;13.49;60.02;101663.97;5122207;27;45379;-83
2022/03/28 07:13:22;;;;;;;;;65.25;48.25;;;;;13.68;58.86;101686.25;5122668;27;45480;-83
2022/03/28 07:15:53;;;;;;;;;63.25;49.50;;;;;13.77;58.60;101672.19;5126514;27;44810;-80
2022/03/28 07:18:19;;;;;;;;;61.50;48.50;;;;;13.86;58.78;101680.22;5122151;27;45391;-83
2022/03/28 07:20:45;;;;;;;;;63.50;49.75;;;;;14.01;58.33;101680.38;5118375;27;45420;-84
2022/03/28 07:23:12;;;;;;;;;64.75;51.25;;;;;14.07;57.63;101666.28;5097773;27;46977;-81
2022/03/28 07:25:38;;;;;;;;;66.25;50.75;;;;;14.25;57.66;101669.09;5118786;27;45504;-83
2022/03/28 07:28:08;;;;;;;;;62.75;48.50;;;;;14.36;57.34;101670.03;5136705;27;45951;-79
2022/03/28 07:30:34;;;;;;;;;63.75;50.00;;;;;14.46;56.84;101671.03;5116308;27;45359;-78
2022/03/28 07:33:01;;;;;;;;;65.25;51.50;;;;;14.39;56.67;101635.59;5117428;27;45434;-79
2022/03/28 07:35:27;;;;;;;;;62.50;48.50;;;;;14.66;56.08;101676.44;5110959;27;45542;-79
2022/03/28 07:37:52;;;;;;;;;63.25;49.50;;;;;14.68;55.99;101664.06;5120689;27;45507;-83
2022/03/28 07:40:18;;;;;;;;;69.00;51.50;;;;;14.77;56.00;101670.31;5115398;27;45865;-79
2022/03/28 07:42:44;;;;;;;;;68.00;50.50;;;;;14.91;55.47;101667.75;5110189;27;46258;-82
2022/03/28 07:45:14;;;;;;;;;62.50;49.00;;;;;15.03;55.03;101673.09;5102750;27;45583;-80
2022/03/28 07:47:40;;;;;;;;;62.25;50.25;;;;;15.11;54.97;101666.03;5112384;27;45349;-82
2022/03/28 07:50:06;;;;;;;;;67.50;50.75;;;;;15.20;54.75;101669.63;5116310;27;45447;-75
2022/03/28 07:52:34;;;;;;;;;67.00;52.00;;;;;15.26;54.82;101664.31;5114825;27;46931;-80
2022/03/28 07:55:00;;;;;;;;;70.00;53.25;;;;;15.34;54.34;101662.56;5113668;27;46574;-77
2022/03/28 07:57:26;;;;;;;;;55.25;44.25;;;;;15.42;54.17;101662.59;5117250;27;45232;-82
2022/03/28 07:59:52;;;;;;;;;66.75;51.00;;;;;15.57;53.85;101665.28;5123455;27;45650;-79
2022/03/28 08:02:18;;;;;;;;;61.50;47.50;;;;;15.70;53.14;101656.47;5120950;27;45481;-80
2022/03/28 08:04:44;;;;;;;;;68.00;52.50;;;;;15.80;53.18;101660.91;5116994;27;45905;-78
2022/03/28 08:07:11;;;;;;;;;63.75;50.00;;;;;15.89;52.90;101663.56;5118515;27;45539;-77
2022/03/28 08:09:38;;;;;;;;;65.00;50.75;;;;;16.01;52.58;101660.03;5117917;27;45494;-80
2022/03/28 08:12:05;;;;;;;;;66.50;54.00;;;;;15.88;52.00;101618.41;5114297;27;45924;-78
2022/03/28 08:14:30;;;;;;;;;66.25;51.00;;;;;16.18;51.96;101660.88;5114347;27;46274;-77
2022/03/28 08:16:56;;;;;;;;;65.50;51.75;;;;;16.35;51.17;101663.53;5118182;27;45245;-73
2022/03/28 08:19:23;;;;;;;;;60.75;48.25;;;;;16.50;51.40;101662.63;5123190;27;45488;-75
2022/03/28 08:21:48;;;;;;;;;69.00;54.25;;;;;16.58;50.95;101659.97;5096106;27;46135;-77
2022/03/28 08:24:14;;;;;;;;;66.50;52.00;;;;;16.72;50.83;101660.81;5108455;27;45325;-77
2022/03/28 08:26:39;;;;;;;;;65.00;51.00;;;;;16.80;50.66;101653.72;5108581;27;45506;-76
2022/03/28 08:29:05;;;;;;;;;66.00;53.00;;;;;16.91;49.81;101654.53;5117829;27;45472;-79
2022/03/28 08:31:31;;;;;;;;;62.00;51.50;;;;;16.99;49.67;101657.19;5117275;27;46857;-78
2022/03/28 08:33:56;;;;;;;;;65.00;50.50;;;;;17.12;49.22;101658.88;5117932;27;45251;-79
2022/03/28 08:36:22;;;;;;;;;64.25;51.00;;;;;17.22;49.31;101644.66;5120695;27;47123;-77
2022/03/28 08:38:48;;;;;;;;;66.75;52.25;;;;;17.45;48.87;101640.97;5124206;27;45404;-81
2022/03/28 08:41:16;;;;;;;;;65.25;51.00;;;;;17.65;48.39;101639.03;5118585;27;46165;-79
2022/03/28 08:43:42;;;;;;;;;68.75;51.75;;;;;17.88;47.93;101644.25;5116445;27;45407;-78
2022/03/28 08:46:09;;;;;;;;;64.50;51.00;;;;;18.13;47.31;101640.44;5116343;27;45518;-82
2022/03/28 08:48:40;;;;;;;;;64.50;49.75;;;;;18.47;46.49;101642.78;5105271;27;45408;-78
2022/03/28 08:51:08;;;;;;;;;63.25;49.75;;;;;19.00;45.24;101631.50;5107389;27;46097;-78
2022/03/28 08:53:34;;;;;;;;;59.50;48.00;;;;;20.55;43.33;101639.72;5115073;27;45339;-75
2022/03/28 08:56:00;;;;;;;;;61.00;47.75;;;;;24.09;36.54;101624.88;5118197;27;45514;-76
2022/03/28 08:58:26;;;;;;;;;59.75;48.00;;;;;27.08;31.36;101622.66;5118683;27;45397;-75
2022/03/28 09:00:52;;;;;;;;;66.25;52.00;;;;;29.45;27.78;101614.72;5117978;27;46943;-78
2022/03/28 09:03:18;;;;;;;;;64.50;50.75;;;;;31.41;25.37;101628.06;5113263;27;45756;-78
2022/03/28 09:05:47;;;;;;;;;64.50;52.50;;;;;32.96;23.50;101625.63;5112224;27;46004;-79
2022/03/28 09:08:13;;;;;;;;;58.00;45.67;;;;;34.34;21.63;101624.28;5120457;27;45230;-79
2022/03/28 09:10:46;;;;;;;;;55.00;45.00;;;;;35.50;20.43;101618.50;5119937;27;46064;-80
2022/03/28 09:13:13;;;;;;;;;52.33;45.00;;;;;36.50;19.10;101625.44;5120042;27;45341;-79
2022/03/28 09:15:55;;;;;;;;;55.00;44.67;;;;;37.38;18.21;101632.22;5120063;27;45447;-76
2022/03/28 09:18:30;;;;;;;;;52.67;43.67;;;;;37.99;17.52;101617.41;5117553;27;45251;-77
2022/03/28 09:21:04;;;;;;;;;57.00;44.67;;;;;38.70;16.93;101628.91;5115860;27;45242;-79
2022/03/28 09:23:43;;;;;;;;;55.67;46.33;;;;;39.09;16.72;101624.13;5119654;27;45520;-78
2022/03/28 09:26:13;;;;;;;;;50.33;42.67;;;;;39.72;15.97;101617.81;5108216;27;45378;-80
2022/03/28 09:28:47;;;;;;;;;55.67;43.67;;;;;40.41;15.46;101622.59;5120046;27;45436;-81
2022/03/28 09:31:17;;;;;;;;;55.25;44.00;;;;;40.76;15.10;101615.19;5119531;27;45373;-81
2022/03/28 09:34:17;;;;;;;;;54.50;44.50;;;;;41.33;14.28;101621.06;5118742;27;45476;-80
2022/03/28 09:36:42;;;;;;;;;53.00;44.00;;;;;41.99;13.84;101618.25;5114170;27;45443;-76
2022/03/28 09:39:17;;;;;;;;;53.75;43.25;;;;;42.52;13.26;101616.81;5118944;27;45667;-76
2022/03/28 09:42:01;;;;;;;;;57.75;46.00;;;;;43.00;12.94;101611.34;5117303;27;45347;-81
2022/03/28 09:44:42;;;;;;;;;54.40;43.40;;;;;43.49;12.26;101614.78;5119016;27;45305;-77
2022/03/28 09:47:17;;;;;;;;;53.00;44.00;;;;;43.84;12.18;101607.78;5118974;27;45199;-82
2022/03/28 09:49:44;;;;;;;;;56.40;43.60;;;;;43.78;12.31;101584.41;5116730;27;45483;-79
2022/03/28 09:52:15;;;;;;;;;53.00;43.40;;;;;43.88;12.25;101608.28;5109954;27;46643;-77
2022/03/28 09:54:52;;;;;;;;;52.00;43.80;;;;;44.31;11.91;101603.91;5108518;27;45562;-80
2022/03/28 09:57:23;;;;;;;;;55.20;43.80;;;;;44.57;11.77;101600.69;5091782;27;45374;-79
2022/03/28 09:59:49;;;;;;;;;52.00;41.00;;;;;44.63;11.77;101591.59;5111796;27;45647;-81
2022/03/28 10:02:19;;;;;;;;;52.60;42.80;;;;;44.49;11.78;101596.09;5109593;27;45623;-80
2022/03/28 10:04:46;;;;;;;;;47.60;38.20;;;;;44.63;11.91;101586.91;5093903;27;45519;-78
2022/03/28 10:07:12;;;;;;;;;46.40;37.80;;;;;44.87;11.06;101596.88;5108629;27;45408;-80
2022/03/28 10:09:40;;;;;;;;;45.50;38.25;;;;;44.63;10.78;101586.91;5110410;27;45247;-80
2022/03/28 10:12:07;;;;;;;;;46.00;37.60;;;;;43.53;11.38;101553.16;5096743;27;45527;-78
2022/03/28 10:14:34;;;;;;;;;43.80;36.80;;;;;41.89;12.65;101569.63;5111768;27;45469;-75
2022/03/28 10:17:04;;;;;;;;;44.20;37.00;;;;;41.14;13.02;101562.22;5109667;27;45425;-77
2022/03/28 10:19:36;;;;;;;;;43.40;37.80;;;;;40.91;13.04;101569.38;5112163;27;45477;-77
2022/03/28 10:22:07;;;;;;;;;46.80;38.80;;;;;41.30;12.72;101561.41;5108891;27;46314;-79
2022/03/28 10:24:34;;;;;;;;;41.40;34.00;;;;;41.11;12.33;101554.22;5109933;27;45497;-79
2022/03/28 10:27:02;;;;;;;;;41.40;36.00;;;;;41.59;12.56;101555.38;5109786;27;46124;-79
2022/03/28 10:29:42;;;;;;;;;39.60;33.80;;;;;41.86;12.15;101545.91;5107212;27;45308;-79
2022/03/28 10:32:16;;;;;;;;;41.40;34.40;;;;;41.80;11.54;101525.34;5104908;27;48079;-77
2022/03/28 10:34:53;;;;;;;;;43.00;36.00;;;;;42.04;11.94;101535.50;5109863;27;45506;-79
2022/03/28 10:37:44;;;;;;;;;37.40;33.00;;;;;42.01;11.71;101540.56;5110467;27;46822;-77
2022/03/28 10:40:26;;;;;;;;;37.00;32.40;;;;;42.36;11.34;101539.31;5110283;27;45508;-78
2022/03/28 10:43:04;;;;;;;;;35.60;31.80;;;;;41.40;11.44;101458.91;5117134;27;45647;-77
2022/03/28 10:45:34;;;;;;;;;40.60;34.20;;;;;39.72;12.66;101524.88;5112876;27;45923;-79
2022/03/28 10:48:00;;;;;;;;;42.20;34.60;;;;;37.87;13.56;101517.66;5108133;27;45677;-79
2022/03/28 10:50:38;;;;;;;;;41.20;34.00;;;;;36.05;14.85;101445.66;5106512;27;45433;-78
2022/03/28 10:53:20;;;;;;;;;35.80;30.40;;;;;35.27;15.39;101505.31;5090339;27;46261;-81
2022/03/28 10:55:53;;;;;;;;;40.80;32.80;;;;;33.74;16.12;101468.50;5105895;27;45473;-80
2022/03/28 10:58:21;;;;;;;;;33.00;30.80;;;;;33.07;16.65;101502.84;5091064;27;45834;-78
2022/03/28 11:01:09;;;;;;;;;35.60;31.40;;;;;32.10;17.53;101505.34;5104994;27;45533;-79
2022/03/28 11:03:53;;;;;;;;;36.00;31.25;;;;;31.19;17.84;101499.75;5095823;27;45574;-80
2022/03/28 11:06:39;;;;;;;;;30.20;29.40;;;;;30.49;18.05;101464.41;5093698;27;45516;-80
2022/03/28 11:09:05;;;;;;;;;30.00;28.60;;;;;29.88;18.11;101453.81;5085019;27;45459;-78
2022/03/28 11:11:32;;;;;;;;;32.75;31.00;;;;;29.84;18.52;101482.13;5100832;27;45455;-84
2022/03/28 11:14:05;;;;;;;;;31.00;30.25;;;;;29.51;19.07;101473.25;5103823;27;45510;-81